createdAt,value
2023-02-03T00:01:27.591Z,93.90
2023-02-03T00:03:54.251Z,92.80
2023-02-03T00:06:21.050Z,93.00
2023-02-03T00:08:47.758Z,93.00
2023-02-03T00:11:14.675Z,93.00
2023-02-03T00:13:41.374Z,93.10
2023-02-03T00:16:08.193Z,93.10
2023-02-03T00:18:34.820Z,93.70
2023-02-03T00:21:02.943Z,92.50
2023-02-03T00:23:31.986Z,93.30
2023-02-03T00:26:06.811Z,93.30
2023-02-03T00:28:33.502Z,93.30
2023-02-03T00:31:00.189Z,93.30
2023-02-03T00:33:26.869Z,93.80
2023-02-03T00:35:53.617Z,93.30
2023-02-03T00:38:20.249Z,94.30
2023-02-03T00:40:53.634Z,94.00
2023-02-03T00:43:21.095Z,92.90
2023-02-03T00:45:47.949Z,93.40
2023-02-03T00:48:14.634Z,93.90
2023-02-03T00:50:41.522Z,94.30
2023-02-03T00:53:08.389Z,92.60
2023-02-03T00:55:35.153Z,93.40
2023-02-03T00:58:01.936Z,94.00
2023-02-03T01:00:28.869Z,94.00
2023-02-03T01:02:55.645Z,93.40
2023-02-03T01:05:22.287Z,94.00
2023-02-03T01:07:48.925Z,93.80
2023-02-03T01:10:15.802Z,94.30
2023-02-03T01:12:42.449Z,93.80
2023-02-03T01:15:09.278Z,94.40
2023-02-03T01:17:35.966Z,94.40
2023-02-03T01:20:02.885Z,93.80
2023-02-03T01:22:30.725Z,93.80
2023-02-03T01:24:57.364Z,94.60
2023-02-03T01:27:24.203Z,94.00
2023-02-03T01:29:50.844Z,93.40
2023-02-03T01:32:17.545Z,94.20
2023-02-03T01:34:44.245Z,93.20
2023-02-03T01:37:10.979Z,95.50
2023-02-03T01:39:37.636Z,94.40
2023-02-03T01:42:04.295Z,94.70
2023-02-03T01:44:44.943Z,94.30
2023-02-03T01:47:14.426Z,94.20
2023-02-03T01:49:44.408Z,93.70
2023-02-03T01:52:11.597Z,94.00
2023-02-03T01:54:42.620Z,94.20
2023-02-03T01:57:17.322Z,94.10
2023-02-03T01:59:44.082Z,94.10
2023-02-03T02:02:12.562Z,94.40
2023-02-03T02:05:18.304Z,94.70
2023-02-03T02:07:45.620Z,95.20
2023-02-03T02:10:12.411Z,94.70
2023-02-03T02:12:39.429Z,94.10
2023-02-03T02:15:06.845Z,94.20
2023-02-03T02:17:50.464Z,94.70
2023-02-03T02:20:38.653Z,94.60
2023-02-03T02:23:23.145Z,93.80
2023-02-03T02:26:32.210Z,94.00
2023-02-03T02:29:23.406Z,95.70
2023-02-03T02:31:56.316Z,95.30
2023-02-03T02:34:40.144Z,95.00
2023-02-03T02:37:19.913Z,94.10
2023-02-03T02:39:52.822Z,94.50
2023-02-03T02:42:27.150Z,95.30
2023-02-03T02:44:59.432Z,94.50
2023-02-03T02:47:26.061Z,94.70
2023-02-03T02:50:01.407Z,94.60
2023-02-03T02:52:31.242Z,95.30
2023-02-03T02:55:03.693Z,95.00
2023-02-03T02:57:31.687Z,94.60
2023-02-03T02:59:58.435Z,95.30
2023-02-03T03:02:33.861Z,95.60
2023-02-03T03:05:01.500Z,94.60
2023-02-03T03:07:29.169Z,95.90
2023-02-03T03:10:00.731Z,95.00
2023-02-03T03:12:38.116Z,94.50
2023-02-03T03:15:08.300Z,95.40
2023-02-03T03:17:40.745Z,95.10
2023-02-03T03:20:14.082Z,95.10
2023-02-03T03:23:02.795Z,95.10
2023-02-03T03:25:36.285Z,94.80
2023-02-03T03:28:06.484Z,95.80
2023-02-03T03:30:39.357Z,95.40
2023-02-03T03:33:10.669Z,96.20
2023-02-03T03:36:04.958Z,95.40
2023-02-03T03:38:44.211Z,96.40
2023-02-03T03:41:39.519Z,95.20
2023-02-03T03:44:11.313Z,95.80
2023-02-03T03:46:52.152Z,97.40
2023-02-03T03:49:20.198Z,96.50
2023-02-03T03:51:50.368Z,96.10
2023-02-03T03:54:20.484Z,95.70
2023-02-03T03:56:50.734Z,96.40
2023-02-03T03:59:20.843Z,96.60
2023-02-03T04:01:48.798Z,95.30
2023-02-03T04:04:16.213Z,96.80
2023-02-03T04:06:42.844Z,96.50
2023-02-03T04:09:09.553Z,95.60
2023-02-03T04:11:54.676Z,96.10
2023-02-03T04:14:21.389Z,94.90
2023-02-03T04:16:48.049Z,95.50
2023-02-03T04:19:14.669Z,95.90
2023-02-03T04:21:41.367Z,96.20
2023-02-03T04:24:08.152Z,96.40
2023-02-03T04:26:34.856Z,95.90
2023-02-03T04:29:01.509Z,96.20
2023-02-03T04:31:28.260Z,95.70
2023-02-03T04:33:55.065Z,95.20
2023-02-03T04:36:22.107Z,94.90
2023-02-03T04:38:49.571Z,97.20
2023-02-03T04:41:16.830Z,96.70
2023-02-03T04:43:43.653Z,96.50
2023-02-03T04:46:10.533Z,96.70
2023-02-03T04:48:37.631Z,96.90
2023-02-03T04:51:06.125Z,96.50
2023-02-03T04:53:33.160Z,97.60
2023-02-03T04:56:00.109Z,95.60
2023-02-03T04:58:27.175Z,95.80
2023-02-03T05:00:54.568Z,95.10
2023-02-03T05:03:24.151Z,95.90
2023-02-03T05:05:52.446Z,96.10
2023-02-03T05:08:19.128Z,95.60
2023-02-03T05:10:45.779Z,95.90
2023-02-03T05:13:12.468Z,96.60
2023-02-03T05:15:39.420Z,94.80
2023-02-03T05:18:06.396Z,95.50
2023-02-03T05:20:33.127Z,96.20
2023-02-03T05:23:01.148Z,96.40
2023-02-03T05:25:27.958Z,94.40
2023-02-03T05:27:54.647Z,95.00
2023-02-03T05:30:21.434Z,94.50
2023-02-03T05:32:49.289Z,94.00
2023-02-03T05:35:16.072Z,94.60
2023-02-03T05:37:45.850Z,95.00
2023-02-03T05:40:48.849Z,95.60
2023-02-03T05:43:15.602Z,95.80
2023-02-03T05:45:42.251Z,96.20
2023-02-03T05:48:09.245Z,94.70
2023-02-03T05:50:38.561Z,95.60
2023-02-03T05:53:06.293Z,95.00
2023-02-03T05:55:33.265Z,96.20
2023-02-03T05:58:01.025Z,95.20
2023-02-03T06:00:28.578Z,94.70
2023-02-03T06:02:57.199Z,95.40
2023-02-03T06:05:24.335Z,95.40
2023-02-03T06:07:51.621Z,95.00
2023-02-03T06:10:18.873Z,95.20
2023-02-03T06:12:45.589Z,96.10
2023-02-03T06:15:12.222Z,95.40
2023-02-03T06:17:38.887Z,96.20
2023-02-03T06:20:09.497Z,95.80
2023-02-03T06:22:36.121Z,96.30
2023-02-03T06:25:02.867Z,95.70
2023-02-03T06:27:29.505Z,96.70
2023-02-03T06:29:56.247Z,96.40
2023-02-03T06:32:22.884Z,95.70
2023-02-03T06:34:49.552Z,96.20
2023-02-03T06:37:16.359Z,96.60
2023-02-03T06:39:42.982Z,97.10
2023-02-03T06:42:09.655Z,97.20
2023-02-03T06:44:36.334Z,97.90
2023-02-03T06:47:03.177Z,97.00
2023-02-03T06:49:30.273Z,96.60
2023-02-03T06:51:57.084Z,96.50
2023-02-03T06:54:23.756Z,95.90
2023-02-03T06:56:50.399Z,96.30
2023-02-03T06:59:17.080Z,96.20
2023-02-03T07:01:43.761Z,98.30
2023-02-03T07:04:10.444Z,99.00
2023-02-03T07:06:37.091Z,98.40
2023-02-03T07:09:05.149Z,98.00
2023-02-03T07:11:32.334Z,98.00
2023-02-03T07:13:59.172Z,97.70
2023-02-03T07:16:27.469Z,97.90
2023-02-03T07:18:54.141Z,97.90
2023-02-03T07:21:20.868Z,98.30
2023-02-03T07:23:48.650Z,97.10
2023-02-03T07:26:15.975Z,97.20
2023-02-03T07:28:42.800Z,97.80
2023-02-03T07:31:10.424Z,97.50
2023-02-03T07:33:38.121Z,98.60
2023-02-03T07:36:05.217Z,98.50
2023-02-03T07:38:32.251Z,98.20
2023-02-03T07:40:58.926Z,98.20
2023-02-03T07:43:25.641Z,97.90
2023-02-03T07:45:52.330Z,98.10
2023-02-03T07:48:19.042Z,98.50
2023-02-03T07:50:47.399Z,98.30
2023-02-03T07:53:14.193Z,98.10
2023-02-03T07:55:40.908Z,98.60
2023-02-03T07:58:07.826Z,98.80
2023-02-03T08:00:34.788Z,98.40
2023-02-03T08:03:01.629Z,98.70
2023-02-03T08:05:29.394Z,98.20
2023-02-03T08:07:56.902Z,98.60
2023-02-03T08:10:23.544Z,98.50
2023-02-03T08:12:53.883Z,99.50
2023-02-03T08:15:20.799Z,99.80
2023-02-03T08:17:49.332Z,99.90
2023-02-03T08:20:16.631Z,99.20
2023-02-03T08:22:43.424Z,99.30
2023-02-03T08:25:10.912Z,99.60
2023-02-03T08:27:38.674Z,99.90
2023-02-03T08:30:06.776Z,99.90
2023-02-03T08:32:34.179Z,99.90
2023-02-03T08:35:00.803Z,99.90
2023-02-03T08:37:28.305Z,99.90
2023-02-03T08:39:55.059Z,99.90
2023-02-03T08:42:21.820Z,99.90
2023-02-03T08:44:49.248Z,99.90
2023-02-03T08:47:16.189Z,99.90
2023-02-03T08:49:43.255Z,99.90
2023-02-03T08:52:12.702Z,99.90
2023-02-03T08:54:39.649Z,99.90
2023-02-03T08:57:07.210Z,99.90
2023-02-03T08:59:36.168Z,99.90
2023-02-03T09:02:07.038Z,99.90
2023-02-03T09:04:33.894Z,99.90
2023-02-03T09:07:03.782Z,99.90
2023-02-03T09:09:31.897Z,99.90
2023-02-03T09:12:02.322Z,99.90
2023-02-03T09:14:33.238Z,99.90
2023-02-03T09:17:01.722Z,99.90
2023-02-03T09:19:28.337Z,99.90
2023-02-03T09:21:56.733Z,99.90
2023-02-03T09:24:24.275Z,99.90
2023-02-03T09:26:51.341Z,99.90
2023-02-03T09:29:17.998Z,99.90
2023-02-03T09:31:46.978Z,99.90
2023-02-03T09:34:13.736Z,99.90
2023-02-03T09:36:41.910Z,99.90
2023-02-03T09:39:09.635Z,99.90
2023-02-03T09:41:57.375Z,99.90
2023-02-03T09:44:34.468Z,99.90
2023-02-03T09:47:04.261Z,99.90
2023-02-03T09:49:33.712Z,99.90
2023-02-03T09:52:09.254Z,99.90
2023-02-03T09:54:48.034Z,99.90
2023-02-03T09:57:23.858Z,99.90
2023-02-03T09:59:51.299Z,99.90
2023-02-03T10:02:39.969Z,99.90
2023-02-03T10:05:17.860Z,99.90
2023-02-03T10:07:58.954Z,99.90
2023-02-03T10:10:45.326Z,99.90
2023-02-03T10:13:28.872Z,99.90
2023-02-03T10:16:22.133Z,99.90
2023-02-03T10:18:54.754Z,99.90
2023-02-03T10:21:25.375Z,99.90
2023-02-03T10:23:55.063Z,99.90
2023-02-03T10:26:24.326Z,99.90
2023-02-03T10:28:55.278Z,99.90
2023-02-03T10:31:24.657Z,99.90
2023-02-03T10:34:15.605Z,99.90
2023-02-03T10:37:23.208Z,99.90
2023-02-03T10:39:53.530Z,99.90
2023-02-03T10:42:22.159Z,99.90
2023-02-03T10:44:56.340Z,99.90
2023-02-03T10:47:34.783Z,99.90
2023-02-03T10:50:19.598Z,99.90
2023-02-03T10:52:46.606Z,99.90
2023-02-03T10:55:25.248Z,99.90
2023-02-03T10:57:53.270Z,99.90
2023-02-03T11:00:28.834Z,99.90
2023-02-03T11:03:06.366Z,99.90
2023-02-03T11:05:33.332Z,99.90
2023-02-03T11:08:00.242Z,99.90
2023-02-03T11:10:27.230Z,99.90
2023-02-03T11:13:19.333Z,99.90
2023-02-03T11:16:02.075Z,99.90
2023-02-03T11:18:47.314Z,99.90
2023-02-03T11:21:16.227Z,99.90
2023-02-03T11:23:53.441Z,99.90
2023-02-03T11:26:41.675Z,99.90
2023-02-03T11:29:19.440Z,99.90
2023-02-03T11:31:51.439Z,99.90
2023-02-03T11:34:31.339Z,99.90
2023-02-03T11:36:58.149Z,99.90
2023-02-03T11:39:29.292Z,99.90
2023-02-03T11:41:56.532Z,99.90
2023-02-03T11:44:29.410Z,99.90
2023-02-03T11:47:00.193Z,99.90
2023-02-03T11:49:29.986Z,99.90
2023-02-03T11:52:02.489Z,99.90
2023-02-03T11:54:35.063Z,99.90
2023-02-03T11:57:37.582Z,99.90
2023-02-03T12:00:13.434Z,99.90
2023-02-03T12:03:12.747Z,99.90
2023-02-03T12:06:27.891Z,99.90
2023-02-03T12:09:13.156Z,99.90
2023-02-03T12:12:01.849Z,99.90
2023-02-03T12:14:31.221Z,99.90
2023-02-03T12:17:16.748Z,99.90
2023-02-03T12:20:06.809Z,99.90
2023-02-03T12:22:59.190Z,99.90
2023-02-03T12:25:47.756Z,99.90
2023-02-03T12:28:33.984Z,99.90
2023-02-03T12:31:08.065Z,99.90
2023-02-03T12:33:44.309Z,99.90
2023-02-03T12:36:19.172Z,99.90
2023-02-03T12:39:18.074Z,99.90
2023-02-03T12:41:51.006Z,99.90
2023-02-03T12:44:26.663Z,99.90
2023-02-03T12:47:06.583Z,99.90
2023-02-03T12:49:44.431Z,99.90
2023-02-03T12:52:22.982Z,99.90
2023-02-03T12:55:32.687Z,99.90
2023-02-03T12:58:03.905Z,99.90
2023-02-03T13:01:00.663Z,97.30
2023-02-03T13:03:36.034Z,98.30
2023-02-03T13:06:15.217Z,97.00
2023-02-03T13:08:49.274Z,97.50
2023-02-03T13:11:28.435Z,98.10
2023-02-03T13:13:57.370Z,96.10
2023-02-03T13:16:30.032Z,96.60
2023-02-03T13:19:05.813Z,96.90
2023-02-03T13:21:32.723Z,96.90
2023-02-03T13:23:59.450Z,96.30
2023-02-03T13:26:38.789Z,96.80
2023-02-03T13:29:24.290Z,96.40
2023-02-03T13:32:13.970Z,95.40
2023-02-03T13:35:09.603Z,96.10
2023-02-03T13:37:49.494Z,97.10
2023-02-03T13:40:28.310Z,96.10
2023-02-03T13:43:05.986Z,95.60
2023-02-03T13:45:38.814Z,95.80
2023-02-03T13:48:17.278Z,96.00
2023-02-03T13:50:44.699Z,94.60
2023-02-03T13:53:25.702Z,95.20
2023-02-03T13:55:57.867Z,95.20
2023-02-03T13:58:31.101Z,95.40
2023-02-03T14:01:06.182Z,92.30
2023-02-03T14:03:35.779Z,93.40
2023-02-03T14:06:03.559Z,94.80
2023-02-03T14:08:30.155Z,94.30
2023-02-03T14:11:34.335Z,94.20
2023-02-03T14:14:10.052Z,94.70
2023-02-03T14:16:45.024Z,95.70
2023-02-03T14:19:29.726Z,94.70
2023-02-03T14:22:00.098Z,94.60
2023-02-03T14:24:34.849Z,95.30
2023-02-03T14:27:04.640Z,93.60
2023-02-03T14:29:35.032Z,94.70
2023-02-03T14:32:01.772Z,94.20
2023-02-03T14:34:34.465Z,94.20
2023-02-03T14:37:21.944Z,95.20
2023-02-03T14:40:16.377Z,94.70
2023-02-03T14:43:20.283Z,93.80
2023-02-03T14:46:26.386Z,93.40
2023-02-03T14:48:55.776Z,93.70
2023-02-03T14:51:40.232Z,94.50
2023-02-03T14:54:39.069Z,94.70
2023-02-03T14:57:45.493Z,94.60
2023-02-03T15:00:22.360Z,94.40
2023-02-03T15:03:10.173Z,95.10
2023-02-03T15:05:44.234Z,94.40
2023-02-03T15:08:33.419Z,94.80
2023-02-03T15:11:00.828Z,93.60
2023-02-03T15:13:31.491Z,94.90
2023-02-03T15:16:01.739Z,93.40
2023-02-03T15:18:30.150Z,96.00
2023-02-03T15:20:57.280Z,95.50
2023-02-03T15:23:27.160Z,96.20
2023-02-03T15:26:01.745Z,95.90
2023-02-03T15:28:30.033Z,95.50
2023-02-03T15:31:09.906Z,94.90
2023-02-03T15:33:38.651Z,93.90
2023-02-03T15:36:23.101Z,95.00
2023-02-03T15:38:56.291Z,95.40
2023-02-03T15:41:24.504Z,94.50
2023-02-03T15:43:55.208Z,94.50
2023-02-03T15:46:24.642Z,94.90
2023-02-03T15:48:52.700Z,95.50
2023-02-03T15:51:32.228Z,95.00
2023-02-03T15:54:11.771Z,96.10
2023-02-03T15:56:43.814Z,96.50
2023-02-03T15:59:30.450Z,95.60
2023-02-03T16:01:57.381Z,96.60
2023-02-03T16:04:24.752Z,95.50
2023-02-03T16:06:53.113Z,96.80
2023-02-03T16:09:47.676Z,96.60
2023-02-03T16:12:19.064Z,96.20
2023-02-03T16:14:46.992Z,96.90
2023-02-03T16:17:37.173Z,97.10
2023-02-03T16:20:12.779Z,97.70
2023-02-03T16:22:41.963Z,98.50
2023-02-03T16:25:19.566Z,98.60
2023-02-03T16:28:33.878Z,99.20
2023-02-03T16:31:21.044Z,99.40
2023-02-03T16:34:09.215Z,99.90
2023-02-03T16:36:59.689Z,99.90
2023-02-03T16:39:45.599Z,99.90
2023-02-03T16:42:40.303Z,99.90
2023-02-03T16:45:32.946Z,99.90
2023-02-03T16:48:19.243Z,99.90
2023-02-03T16:50:52.951Z,99.90
2023-02-03T16:53:23.323Z,99.90
2023-02-03T16:55:50.877Z,99.90
2023-02-03T16:58:18.012Z,99.90
2023-02-03T17:00:47.882Z,99.90
2023-02-03T17:03:17.683Z,99.90
2023-02-03T17:05:45.911Z,99.90
2023-02-03T17:08:13.592Z,99.90
2023-02-03T17:10:42.084Z,99.90
2023-02-03T17:13:09.368Z,99.90
2023-02-03T17:15:41.175Z,99.90
2023-02-03T17:18:08.056Z,99.90
2023-02-03T17:20:35.057Z,99.90
2023-02-03T17:23:01.709Z,99.90
2023-02-03T17:25:29.128Z,99.90
2023-02-03T17:27:56.095Z,99.90
2023-02-03T17:30:22.774Z,99.90
2023-02-03T17:32:49.409Z,99.90
2023-02-03T17:35:16.214Z,99.90
2023-02-03T17:37:42.870Z,99.90
2023-02-03T17:53:59.873Z,99.90
2023-02-03T17:56:27.680Z,99.90
2023-02-03T17:58:58.506Z,99.90
2023-02-03T18:01:28.877Z,99.90
2023-02-03T18:03:57.207Z,99.90
2023-02-03T18:06:25.208Z,99.90
2023-02-03T18:08:52.015Z,99.90
2023-02-03T18:11:19.334Z,99.90
2023-02-03T18:13:48.269Z,99.90
2023-02-03T18:16:17.808Z,99.90
2023-02-03T18:18:45.311Z,99.90
2023-02-03T18:21:14.694Z,99.90
2023-02-03T18:23:41.995Z,99.90
2023-02-03T18:26:10.642Z,99.90
2023-02-03T18:28:38.104Z,99.90
2023-02-03T18:31:06.044Z,99.90
2023-02-03T18:33:32.988Z,99.90
2023-02-03T18:36:01.520Z,99.90
2023-02-03T18:38:30.534Z,99.90
2023-02-03T18:40:57.332Z,99.90
2023-02-03T18:43:24.148Z,99.90
2023-02-03T18:45:50.809Z,99.90
2023-02-03T18:48:17.544Z,99.90
2023-02-03T18:50:44.203Z,99.90
2023-02-03T18:53:13.880Z,99.90
2023-02-03T18:55:42.052Z,99.90
2023-02-03T18:58:08.970Z,99.90
2023-02-03T19:00:36.895Z,99.90
2023-02-03T19:03:04.094Z,99.90
2023-02-03T19:08:01.007Z,99.90
2023-02-03T19:10:28.059Z,99.90
2023-02-03T19:12:54.878Z,99.90
2023-02-03T19:15:21.517Z,99.90
2023-02-03T19:17:48.571Z,99.90
2023-02-03T19:20:15.407Z,99.90
2023-02-03T19:22:42.124Z,99.90
2023-02-03T19:25:08.853Z,99.90
2023-02-03T19:27:39.038Z,99.90
2023-02-03T19:30:05.983Z,99.90
2023-02-03T19:32:32.592Z,99.90
2023-02-03T19:34:59.202Z,99.90
2023-02-03T19:37:25.864Z,99.90
2023-02-03T19:39:52.462Z,99.90
2023-02-03T19:42:19.117Z,99.90
2023-02-03T19:44:45.758Z,99.90
2023-02-03T19:47:12.430Z,99.90
2023-02-03T19:49:39.290Z,99.90
2023-02-03T19:52:08.002Z,99.90
2023-02-03T19:54:34.868Z,99.90
2023-02-03T19:57:01.851Z,99.90
2023-02-03T19:59:28.652Z,99.90
2023-02-03T20:01:57.988Z,99.90
2023-02-03T20:04:24.935Z,99.90
2023-02-03T20:06:51.567Z,99.90
2023-02-03T20:09:18.168Z,99.90
2023-02-03T20:11:44.922Z,99.90
2023-02-03T20:14:12.478Z,99.90
2023-02-03T20:16:39.090Z,99.90
2023-02-03T20:19:05.743Z,99.90
2023-02-03T20:21:32.471Z,99.90
2023-02-03T20:23:59.718Z,99.90
2023-02-03T20:26:26.395Z,99.90
2023-02-03T20:28:52.996Z,99.90
2023-02-03T20:31:19.687Z,99.90
2023-02-03T20:33:46.421Z,99.90
2023-02-03T20:36:12.998Z,99.90
2023-02-03T20:38:39.629Z,99.90
2023-02-03T20:41:10.394Z,99.90
2023-02-03T20:43:37.975Z,99.90
2023-02-03T20:46:15.548Z,99.90
2023-02-03T20:48:42.261Z,99.90
2023-02-03T20:51:13.038Z,99.90
2023-02-03T20:53:40.560Z,99.90
2023-02-03T20:56:15.265Z,99.90
2023-02-03T20:58:44.312Z,99.90
2023-02-03T21:01:21.974Z,99.90
2023-02-03T21:04:07.565Z,99.90
2023-02-03T21:06:35.109Z,99.90
2023-02-03T21:09:11.335Z,99.90
2023-02-03T21:11:37.950Z,99.90
2023-02-03T21:14:20.314Z,99.90
2023-02-03T21:16:47.727Z,99.90
2023-02-03T21:19:31.649Z,99.90
2023-02-03T21:21:59.029Z,99.90
2023-02-03T21:24:30.107Z,99.90
2023-02-03T21:26:57.919Z,99.90
2023-02-03T21:29:27.162Z,99.90
2023-02-03T21:31:54.404Z,99.90
2023-02-03T21:34:33.665Z,99.90
2023-02-03T21:37:20.520Z,99.90
2023-02-03T21:39:48.000Z,99.90
2023-02-03T21:42:40.969Z,99.90
2023-02-03T21:45:17.155Z,99.90
2023-02-03T21:47:46.275Z,99.90
2023-02-03T21:50:33.575Z,99.90
2023-02-03T21:53:09.435Z,99.90
2023-02-03T21:55:37.065Z,99.90
2023-02-03T21:58:21.462Z,99.90
2023-02-03T22:00:49.036Z,99.90
2023-02-03T22:03:27.780Z,99.90
2023-02-03T22:06:09.551Z,99.90
2023-02-03T22:08:38.983Z,99.90
2023-02-03T22:11:05.983Z,99.90
2023-02-03T22:13:32.739Z,99.90
2023-02-03T22:15:59.396Z,99.90
2023-02-03T22:18:26.086Z,99.90
2023-02-03T22:20:53.020Z,99.90
2023-02-03T22:23:20.556Z,99.90
2023-02-03T22:25:47.761Z,99.90
2023-02-03T22:28:20.169Z,99.90
2023-02-03T22:30:48.090Z,99.90
2023-02-03T22:33:15.344Z,99.90
2023-02-03T22:35:41.978Z,99.90
2023-02-03T22:38:08.613Z,99.90
2023-02-03T22:40:35.250Z,99.90
2023-02-03T22:43:02.245Z,99.90
2023-02-03T22:45:29.297Z,99.90
2023-02-03T22:48:00.240Z,99.90
2023-02-03T22:50:35.704Z,99.90
2023-02-03T22:53:04.274Z,99.90
2023-02-03T22:55:32.366Z,99.90
2023-02-03T22:57:59.399Z,99.90
2023-02-03T23:00:27.036Z,99.90
2023-02-03T23:02:54.122Z,99.90
2023-02-03T23:05:21.929Z,99.90
2023-02-03T23:07:49.741Z,99.90
2023-02-03T23:10:20.118Z,99.90
2023-02-03T23:12:52.112Z,99.90
2023-02-03T23:15:19.399Z,99.90
2023-02-03T23:17:48.662Z,99.90
2023-02-03T23:20:16.218Z,99.90
2023-02-03T23:22:43.884Z,99.90
2023-02-03T23:25:13.975Z,99.90
2023-02-03T23:27:43.348Z,99.90
2023-02-03T23:30:10.950Z,99.90
2023-02-03T23:32:37.884Z,99.90
2023-02-03T23:35:24.204Z,99.90
2023-02-03T23:37:51.072Z,99.90
2023-02-03T23:42:58.848Z,99.90
2023-02-03T23:48:03.352Z,99.90
2023-02-03T23:50:38.530Z,99.90
2023-02-03T23:53:18.604Z,99.90
